sensor_id;sensor_type;location;lat;lon;timestamp;P1;durP1;ratioP1;P2;durP2;ratioP2
17949;SDS011;9100;48.700;9.316;2022-12-19T00:00:12;18.7;;;10.4;;
17949;SDS011;9100;48.700;9.316;2022-12-19T00:01:13;18.7;;;10.4;;
17949;SDS011;9100;48.700;9.316;2022-12-19T00:02:08;16.4;;;9.8;;
17949;SDS011;9100;48.700;9.316;2022-12-19T00:02:12;16.4;;;9.8;;
17949;SDS011;9100;48.700;9.316;2022-12-19T00:03:12;16.4;;;9.8;;
17949;SDS011;9100;48.700;9.316;2022-12-19T00:04:12;16.4;;;9.8;;
17949;SDS011;9100;48.700;9.316;2022-12-19T00:05:12;16.4;;;9.8;;
17949;SDS011;9100;48.700;9.316;2022-12-19T00:06:12;16.4;;;9.8;;
17949;SDS011;9100;48.700;9.316;2022-12-19T00:07:08;20;;;12.6;;
17949;SDS011;9100;48.700;9.316;2022-12-19T00:07:12;20;;;12.6;;
17949;SDS011;9100;48.700;9.316;2022-12-19T00:08:13;20;;;12.6;;
17949;SDS011;9100;48.700;9.316;2022-12-19T00:09:12;20;;;12.6;;
17949;SDS011;9100;48.700;9.316;2022-12-19T00:10:12;20;;;12.6;;
17949;SDS011;9100;48.700;9.316;2022-12-19T00:11:12;20;;;12.6;;
17949;SDS011;9100;48.700;9.316;2022-12-19T00:12:09;23.4;;;15.5;;
17949;SDS011;9100;48.700;9.316;2022-12-19T00:12:12;23.4;;;15.5;;
17949;SDS011;9100;48.700;9.316;2022-12-19T00:13:12;23.4;;;15.5;;
17949;SDS011;9100;48.700;9.316;2022-12-19T00:14:12;23.4;;;15.5;;
17949;SDS011;9100;48.700;9.316;2022-12-19T00:15:12;23.4;;;15.5;;
17949;SDS011;9100;48.700;9.316;2022-12-19T00:16:12;23.4;;;15.5;;
17949;SDS011;9100;48.700;9.316;2022-12-19T00:17:08;30.4;;;18.9;;
17949;SDS011;9100;48.700;9.316;2022-12-19T00:17:12;30.4;;;18.9;;
17949;SDS011;9100;48.700;9.316;2022-12-19T00:18:12;30.4;;;18.9;;
17949;SDS011;9100;48.700;9.316;2022-12-19T00:19:12;30.4;;;18.9;;
17949;SDS011;9100;48.700;9.316;2022-12-19T00:20:12;30.4;;;18.9;;
17949;SDS011;9100;48.700;9.316;2022-12-19T00:21:12;30.4;;;18.9;;
17949;SDS011;9100;48.700;9.316;2022-12-19T00:22:08;8.9;;;6.1;;
17949;SDS011;9100;48.700;9.316;2022-12-19T00:22:12;8.9;;;6.1;;
17949;SDS011;9100;48.700;9.316;2022-12-19T00:23:12;8.9;;;6.1;;
17949;SDS011;9100;48.700;9.316;2022-12-19T00:24:12;8.9;;;6.1;;
17949;SDS011;9100;48.700;9.316;2022-12-19T00:25:12;8.9;;;6.1;;
17949;SDS011;9100;48.700;9.316;2022-12-19T00:26:12;8.9;;;6.1;;
17949;SDS011;9100;48.700;9.316;2022-12-19T00:27:08;24.8;;;12.1;;
17949;SDS011;9100;48.700;9.316;2022-12-19T00:27:12;24.8;;;12.1;;
17949;SDS011;9100;48.700;9.316;2022-12-19T00:28:12;24.8;;;12.1;;
17949;SDS011;9100;48.700;9.316;2022-12-19T00:29:12;24.8;;;12.1;;
17949;SDS011;9100;48.700;9.316;2022-12-19T00:30:14;24.8;;;12.1;;
17949;SDS011;9100;48.700;9.316;2022-12-19T00:31:12;24.8;;;12.1;;
17949;SDS011;9100;48.700;9.316;2022-12-19T00:32:09;24.4;;;15;;
17949;SDS011;9100;48.700;9.316;2022-12-19T00:32:12;24.4;;;15;;
17949;SDS011;9100;48.700;9.316;2022-12-19T00:33:12;24.4;;;15;;
17949;SDS011;9100;48.700;9.316;2022-12-19T00:34:12;24.4;;;15;;
17949;SDS011;9100;48.700;9.316;2022-12-19T00:35:12;24.4;;;15;;
17949;SDS011;9100;48.700;9.316;2022-12-19T00:36:13;24.4;;;15;;
17949;SDS011;9100;48.700;9.316;2022-12-19T00:37:09;28.6;;;16.7;;
17949;SDS011;9100;48.700;9.316;2022-12-19T00:37:12;28.6;;;16.7;;
17949;SDS011;9100;48.700;9.316;2022-12-19T00:38:12;28.6;;;16.7;;
17949;SDS011;9100;48.700;9.316;2022-12-19T00:39:12;28.6;;;16.7;;
17949;SDS011;9100;48.700;9.316;2022-12-19T00:40:12;28.6;;;16.7;;
17949;SDS011;9100;48.700;9.316;2022-12-19T00:41:13;28.6;;;16.7;;
17949;SDS011;9100;48.700;9.316;2022-12-19T00:42:09;20.2;;;11.4;;
17949;SDS011;9100;48.700;9.316;2022-12-19T00:42:12;20.2;;;11.4;;
17949;SDS011;9100;48.700;9.316;2022-12-19T00:43:12;20.2;;;11.4;;
17949;SDS011;9100;48.700;9.316;2022-12-19T00:44:12;20.2;;;11.4;;
17949;SDS011;9100;48.700;9.316;2022-12-19T00:45:12;20.2;;;11.4;;
17949;SDS011;9100;48.700;9.316;2022-12-19T00:46:13;20.2;;;11.4;;
17949;SDS011;9100;48.700;9.316;2022-12-19T00:47:08;19.7;;;11;;
17949;SDS011;9100;48.700;9.316;2022-12-19T00:47:12;19.7;;;11;;
17949;SDS011;9100;48.700;9.316;2022-12-19T00:48:12;19.7;;;11;;
17949;SDS011;9100;48.700;9.316;2022-12-19T00:49:13;19.7;;;11;;
17949;SDS011;9100;48.700;9.316;2022-12-19T00:50:12;19.7;;;11;;
17949;SDS011;9100;48.700;9.316;2022-12-19T00:51:16;19.7;;;11;;
17949;SDS011;9100;48.700;9.316;2022-12-19T00:52:10;16.5;;;12.7;;
17949;SDS011;9100;48.700;9.316;2022-12-19T00:52:12;16.5;;;12.7;;
17949;SDS011;9100;48.700;9.316;2022-12-19T00:53:12;16.5;;;12.7;;
17949;SDS011;9100;48.700;9.316;2022-12-19T00:54:12;16.5;;;12.7;;
17949;SDS011;9100;48.700;9.316;2022-12-19T00:55:12;16.5;;;12.7;;
17949;SDS011;9100;48.700;9.316;2022-12-19T00:56:14;16.5;;;12.7;;
17949;SDS011;9100;48.700;9.316;2022-12-19T00:57:08;6.2;;;5;;
17949;SDS011;9100;48.700;9.316;2022-12-19T00:57:12;6.2;;;5;;
17949;SDS011;9100;48.700;9.316;2022-12-19T00:58:12;6.2;;;5;;
17949;SDS011;9100;48.700;9.316;2022-12-19T00:59:12;6.2;;;5;;
17949;SDS011;9100;48.700;9.316;2022-12-19T01:00:12;6.2;;;5;;
17949;SDS011;9100;48.700;9.316;2022-12-19T01:01:13;6.2;;;5;;
17949;SDS011;9100;48.700;9.316;2022-12-19T01:02:08;15.4;;;9;;
17949;SDS011;9100;48.700;9.316;2022-12-19T01:02:12;15.4;;;9;;
17949;SDS011;9100;48.700;9.316;2022-12-19T01:03:12;15.4;;;9;;
17949;SDS011;9100;48.700;9.316;2022-12-19T01:04:12;15.4;;;9;;
17949;SDS011;9100;48.700;9.316;2022-12-19T01:05:12;15.4;;;9;;
17949;SDS011;9100;48.700;9.316;2022-12-19T01:06:12;15.4;;;9;;
17949;SDS011;9100;48.700;9.316;2022-12-19T01:07:08;31.5;;;16.2;;
17949;SDS011;9100;48.700;9.316;2022-12-19T01:07:12;31.5;;;16.2;;
17949;SDS011;9100;48.700;9.316;2022-12-19T01:08:12;31.5;;;16.2;;
17949;SDS011;9100;48.700;9.316;2022-12-19T01:09:12;31.5;;;16.2;;
17949;SDS011;9100;48.700;9.316;2022-12-19T01:10:12;31.5;;;16.2;;
17949;SDS011;9100;48.700;9.316;2022-12-19T01:11:12;31.5;;;16.2;;
17949;SDS011;9100;48.700;9.316;2022-12-19T01:12:09;16.4;;;11.7;;
17949;SDS011;9100;48.700;9.316;2022-12-19T01:12:12;16.4;;;11.7;;
17949;SDS011;9100;48.700;9.316;2022-12-19T01:13:12;16.4;;;11.7;;
17949;SDS011;9100;48.700;9.316;2022-12-19T01:14:12;16.4;;;11.7;;
17949;SDS011;9100;48.700;9.316;2022-12-19T01:15:13;16.4;;;11.7;;
17949;SDS011;9100;48.700;9.316;2022-12-19T01:16:12;16.4;;;11.7;;
17949;SDS011;9100;48.700;9.316;2022-12-19T01:17:08;19.9;;;10.6;;
17949;SDS011;9100;48.700;9.316;2022-12-19T01:17:12;19.9;;;10.6;;
17949;SDS011;9100;48.700;9.316;2022-12-19T01:18:12;19.9;;;10.6;;
17949;SDS011;9100;48.700;9.316;2022-12-19T01:19:12;19.9;;;10.6;;
17949;SDS011;9100;48.700;9.316;2022-12-19T01:20:12;19.9;;;10.6;;
17949;SDS011;9100;48.700;9.316;2022-12-19T01:21:12;19.9;;;10.6;;
17949;SDS011;9100;48.700;9.316;2022-12-19T01:22:08;22.3;;;11.2;;
17949;SDS011;9100;48.700;9.316;2022-12-19T01:22:12;22.3;;;11.2;;
17949;SDS011;9100;48.700;9.316;2022-12-19T01:23:12;22.3;;;11.2;;
17949;SDS011;9100;48.700;9.316;2022-12-19T01:24:12;22.3;;;11.2;;
17949;SDS011;9100;48.700;9.316;2022-12-19T01:25:12;22.3;;;11.2;;
17949;SDS011;9100;48.700;9.316;2022-12-19T01:26:12;22.3;;;11.2;;
17949;SDS011;9100;48.700;9.316;2022-12-19T01:27:08;18.4;;;9.1;;
17949;SDS011;9100;48.700;9.316;2022-12-19T01:27:12;18.4;;;9.1;;
17949;SDS011;9100;48.700;9.316;2022-12-19T01:28:12;18.4;;;9.1;;
17949;SDS011;9100;48.700;9.316;2022-12-19T01:29:12;18.4;;;9.1;;
17949;SDS011;9100;48.700;9.316;2022-12-19T01:30:12;18.4;;;9.1;;
17949;SDS011;9100;48.700;9.316;2022-12-19T01:31:12;18.4;;;9.1;;
17949;SDS011;9100;48.700;9.316;2022-12-19T01:32:08;25.6;;;17.2;;
17949;SDS011;9100;48.700;9.316;2022-12-19T01:32:12;25.6;;;17.2;;
17949;SDS011;9100;48.700;9.316;2022-12-19T01:33:13;25.6;;;17.2;;
17949;SDS011;9100;48.700;9.316;2022-12-19T01:34:12;25.6;;;17.2;;
17949;SDS011;9100;48.700;9.316;2022-12-19T01:35:12;25.6;;;17.2;;
17949;SDS011;9100;48.700;9.316;2022-12-19T01:36:12;25.6;;;17.2;;
17949;SDS011;9100;48.700;9.316;2022-12-19T01:37:08;10.7;;;8.2;;
17949;SDS011;9100;48.700;9.316;2022-12-19T01:37:12;10.7;;;8.2;;
17949;SDS011;9100;48.700;9.316;2022-12-19T01:38:12;10.7;;;8.2;;
17949;SDS011;9100;48.700;9.316;2022-12-19T01:39:12;10.7;;;8.2;;
17949;SDS011;9100;48.700;9.316;2022-12-19T01:40:12;10.7;;;8.2;;
17949;SDS011;9100;48.700;9.316;2022-12-19T01:41:12;10.7;;;8.2;;
17949;SDS011;9100;48.700;9.316;2022-12-19T01:42:11;11.8;;;7.3;;
17949;SDS011;9100;48.700;9.316;2022-12-19T01:42:12;11.8;;;7.3;;
17949;SDS011;9100;48.700;9.316;2022-12-19T01:43:12;11.8;;;7.3;;
17949;SDS011;9100;48.700;9.316;2022-12-19T01:44:12;11.8;;;7.3;;
17949;SDS011;9100;48.700;9.316;2022-12-19T01:45:24;11.8;;;7.3;;
17949;SDS011;9100;48.700;9.316;2022-12-19T01:46:12;11.8;;;7.3;;
17949;SDS011;9100;48.700;9.316;2022-12-19T01:47:08;24.3;;;15.9;;
17949;SDS011;9100;48.700;9.316;2022-12-19T01:47:12;24.3;;;15.9;;
17949;SDS011;9100;48.700;9.316;2022-12-19T01:48:13;24.3;;;15.9;;
17949;SDS011;9100;48.700;9.316;2022-12-19T01:49:13;24.3;;;15.9;;
17949;SDS011;9100;48.700;9.316;2022-12-19T01:50:12;24.3;;;15.9;;
17949;SDS011;9100;48.700;9.316;2022-12-19T01:51:13;24.3;;;15.9;;
17949;SDS011;9100;48.700;9.316;2022-12-19T01:52:08;23.2;;;10.3;;
17949;SDS011;9100;48.700;9.316;2022-12-19T01:52:12;23.2;;;10.3;;
17949;SDS011;9100;48.700;9.316;2022-12-19T01:53:12;23.2;;;10.3;;
17949;SDS011;9100;48.700;9.316;2022-12-19T01:54:12;23.2;;;10.3;;
17949;SDS011;9100;48.700;9.316;2022-12-19T01:55:12;23.2;;;10.3;;
17949;SDS011;9100;48.700;9.316;2022-12-19T01:56:12;23.2;;;10.3;;
17949;SDS011;9100;48.700;9.316;2022-12-19T01:57:10;12;;;6.5;;
17949;SDS011;9100;48.700;9.316;2022-12-19T01:57:12;12;;;6.5;;
17949;SDS011;9100;48.700;9.316;2022-12-19T01:58:12;12;;;6.5;;
17949;SDS011;9100;48.700;9.316;2022-12-19T01:59:13;12;;;6.5;;
17949;SDS011;9100;48.700;9.316;2022-12-19T02:00:12;12;;;6.5;;
17949;SDS011;9100;48.700;9.316;2022-12-19T02:01:12;12;;;6.5;;
17949;SDS011;9100;48.700;9.316;2022-12-19T02:02:09;24.2;;;7.2;;
17949;SDS011;9100;48.700;9.316;2022-12-19T02:02:12;24.2;;;7.2;;
17949;SDS011;9100;48.700;9.316;2022-12-19T02:03:13;24.2;;;7.2;;
17949;SDS011;9100;48.700;9.316;2022-12-19T02:04:12;24.2;;;7.2;;
17949;SDS011;9100;48.700;9.316;2022-12-19T02:05:12;24.2;;;7.2;;
17949;SDS011;9100;48.700;9.316;2022-12-19T02:06:12;24.2;;;7.2;;
17949;SDS011;9100;48.700;9.316;2022-12-19T02:07:08;15.8;;;5.5;;
17949;SDS011;9100;48.700;9.316;2022-12-19T02:07:12;15.8;;;5.5;;
17949;SDS011;9100;48.700;9.316;2022-12-19T02:08:12;15.8;;;5.5;;
17949;SDS011;9100;48.700;9.316;2022-12-19T02:09:12;15.8;;;5.5;;
17949;SDS011;9100;48.700;9.316;2022-12-19T02:10:12;15.8;;;5.5;;
17949;SDS011;9100;48.700;9.316;2022-12-19T02:11:12;15.8;;;5.5;;
17949;SDS011;9100;48.700;9.316;2022-12-19T02:12:08;8.1;;;5.9;;
17949;SDS011;9100;48.700;9.316;2022-12-19T02:12:12;8.1;;;5.9;;
17949;SDS011;9100;48.700;9.316;2022-12-19T02:13:12;8.1;;;5.9;;
17949;SDS011;9100;48.700;9.316;2022-12-19T02:14:12;8.1;;;5.9;;
17949;SDS011;9100;48.700;9.316;2022-12-19T02:15:12;8.1;;;5.9;;
17949;SDS011;9100;48.700;9.316;2022-12-19T02:16:14;8.1;;;5.9;;
17949;SDS011;9100;48.700;9.316;2022-12-19T02:17:11;8.7;;;6.4;;
17949;SDS011;9100;48.700;9.316;2022-12-19T02:17:13;8.7;;;6.4;;
17949;SDS011;9100;48.700;9.316;2022-12-19T02:18:14;8.7;;;6.4;;
17949;SDS011;9100;48.700;9.316;2022-12-19T02:19:19;8.7;;;6.4;;
17949;SDS011;9100;48.700;9.316;2022-12-19T02:20:20;8.7;;;6.4;;
17949;SDS011;9100;48.700;9.316;2022-12-19T02:21:30;8.7;;;6.4;;
17949;SDS011;9100;48.700;9.316;2022-12-19T02:22:10;12.5;;;6.3;;
17949;SDS011;9100;48.700;9.316;2022-12-19T02:22:12;12.5;;;6.3;;
17949;SDS011;9100;48.700;9.316;2022-12-19T02:23:21;12.5;;;6.3;;
17949;SDS011;9100;48.700;9.316;2022-12-19T02:24:21;12.5;;;6.3;;
17949;SDS011;9100;48.700;9.316;2022-12-19T02:25:21;12.5;;;6.3;;
17949;SDS011;9100;48.700;9.316;2022-12-19T02:26:17;12.5;;;6.3;;
17949;SDS011;9100;48.700;9.316;2022-12-19T02:27:17;16.4;;;10.7;;
17949;SDS011;9100;48.700;9.316;2022-12-19T02:27:19;16.4;;;10.7;;
17949;SDS011;9100;48.700;9.316;2022-12-19T02:28:19;16.4;;;10.7;;
17949;SDS011;9100;48.700;9.316;2022-12-19T02:29:19;16.4;;;10.7;;
17949;SDS011;9100;48.700;9.316;2022-12-19T02:30:12;16.4;;;10.7;;
17949;SDS011;9100;48.700;9.316;2022-12-19T02:31:12;16.4;;;10.7;;
17949;SDS011;9100;48.700;9.316;2022-12-19T02:32:10;8.8;;;5.2;;
17949;SDS011;9100;48.700;9.316;2022-12-19T02:32:13;8.8;;;5.2;;
17949;SDS011;9100;48.700;9.316;2022-12-19T02:33:13;8.8;;;5.2;;
17949;SDS011;9100;48.700;9.316;2022-12-19T02:34:13;8.8;;;5.2;;
17949;SDS011;9100;48.700;9.316;2022-12-19T02:35:13;8.8;;;5.2;;
17949;SDS011;9100;48.700;9.316;2022-12-19T02:36:14;8.8;;;5.2;;
17949;SDS011;9100;48.700;9.316;2022-12-19T02:37:09;20.3;;;13.4;;
17949;SDS011;9100;48.700;9.316;2022-12-19T02:37:12;20.3;;;13.4;;
17949;SDS011;9100;48.700;9.316;2022-12-19T02:38:14;20.3;;;13.4;;
17949;SDS011;9100;48.700;9.316;2022-12-19T02:39:13;20.3;;;13.4;;
17949;SDS011;9100;48.700;9.316;2022-12-19T02:40:12;20.3;;;13.4;;
17949;SDS011;9100;48.700;9.316;2022-12-19T02:41:13;20.3;;;13.4;;
17949;SDS011;9100;48.700;9.316;2022-12-19T02:42:08;18.6;;;13.4;;
17949;SDS011;9100;48.700;9.316;2022-12-19T02:42:13;18.6;;;13.4;;
17949;SDS011;9100;48.700;9.316;2022-12-19T02:43:12;18.6;;;13.4;;
17949;SDS011;9100;48.700;9.316;2022-12-19T02:44:13;18.6;;;13.4;;
17949;SDS011;9100;48.700;9.316;2022-12-19T02:45:13;18.6;;;13.4;;
17949;SDS011;9100;48.700;9.316;2022-12-19T02:46:12;18.6;;;13.4;;
17949;SDS011;9100;48.700;9.316;2022-12-19T02:47:11;18.2;;;10.2;;
17949;SDS011;9100;48.700;9.316;2022-12-19T02:47:12;18.2;;;10.2;;
17949;SDS011;9100;48.700;9.316;2022-12-19T02:48:12;18.2;;;10.2;;
17949;SDS011;9100;48.700;9.316;2022-12-19T02:49:12;18.2;;;10.2;;
17949;SDS011;9100;48.700;9.316;2022-12-19T02:50:12;18.2;;;10.2;;
17949;SDS011;9100;48.700;9.316;2022-12-19T02:51:12;18.2;;;10.2;;
17949;SDS011;9100;48.700;9.316;2022-12-19T02:52:09;7.1;;;4.5;;
17949;SDS011;9100;48.700;9.316;2022-12-19T02:52:39;7.1;;;4.5;;
17949;SDS011;9100;48.700;9.316;2022-12-19T02:53:13;7.1;;;4.5;;
17949;SDS011;9100;48.700;9.316;2022-12-19T02:54:12;7.1;;;4.5;;
17949;SDS011;9100;48.700;9.316;2022-12-19T02:55:13;7.1;;;4.5;;
17949;SDS011;9100;48.700;9.316;2022-12-19T02:56:16;7.1;;;4.5;;
17949;SDS011;9100;48.700;9.316;2022-12-19T02:57:10;4.2;;;3.8;;
17949;SDS011;9100;48.700;9.316;2022-12-19T02:57:14;4.2;;;3.8;;
17949;SDS011;9100;48.700;9.316;2022-12-19T02:58:22;4.2;;;3.8;;
17949;SDS011;9100;48.700;9.316;2022-12-19T02:59:15;4.2;;;3.8;;
17949;SDS011;9100;48.700;9.316;2022-12-19T03:00:13;4.2;;;3.8;;
17949;SDS011;9100;48.700;9.316;2022-12-19T03:01:14;4.2;;;3.8;;
17949;SDS011;9100;48.700;9.316;2022-12-19T03:02:10;14.7;;;11.3;;
17949;SDS011;9100;48.700;9.316;2022-12-19T03:02:14;14.7;;;11.3;;
17949;SDS011;9100;48.700;9.316;2022-12-19T03:03:14;14.7;;;11.3;;
17949;SDS011;9100;48.700;9.316;2022-12-19T03:04:14;14.7;;;11.3;;
17949;SDS011;9100;48.700;9.316;2022-12-19T03:05:12;14.7;;;11.3;;
17949;SDS011;9100;48.700;9.316;2022-12-19T03:06:13;14.7;;;11.3;;
17949;SDS011;9100;48.700;9.316;2022-12-19T03:07:09;15.2;;;9.7;;
17949;SDS011;9100;48.700;9.316;2022-12-19T03:07:14;15.2;;;9.7;;
17949;SDS011;9100;48.700;9.316;2022-12-19T03:08:13;15.2;;;9.7;;
17949;SDS011;9100;48.700;9.316;2022-12-19T03:09:14;15.2;;;9.7;;
17949;SDS011;9100;48.700;9.316;2022-12-19T03:10:14;15.2;;;9.7;;
17949;SDS011;9100;48.700;9.316;2022-12-19T03:11:12;15.2;;;9.7;;
17949;SDS011;9100;48.700;9.316;2022-12-19T03:12:10;21.4;;;13.5;;
17949;SDS011;9100;48.700;9.316;2022-12-19T03:12:13;21.4;;;13.5;;
17949;SDS011;9100;48.700;9.316;2022-12-19T03:13:13;21.4;;;13.5;;
17949;SDS011;9100;48.700;9.316;2022-12-19T03:14:12;21.4;;;13.5;;
17949;SDS011;9100;48.700;9.316;2022-12-19T03:15:12;21.4;;;13.5;;
17949;SDS011;9100;48.700;9.316;2022-12-19T03:16:12;21.4;;;13.5;;
17949;SDS011;9100;48.700;9.316;2022-12-19T03:17:08;8.9;;;6.4;;
17949;SDS011;9100;48.700;9.316;2022-12-19T03:17:12;8.9;;;6.4;;
17949;SDS011;9100;48.700;9.316;2022-12-19T03:18:12;8.9;;;6.4;;
17949;SDS011;9100;48.700;9.316;2022-12-19T03:19:12;8.9;;;6.4;;
17949;SDS011;9100;48.700;9.316;2022-12-19T03:20:15;8.9;;;6.4;;
17949;SDS011;9100;48.700;9.316;2022-12-19T03:21:13;8.9;;;6.4;;
17949;SDS011;9100;48.700;9.316;2022-12-19T03:22:08;11.3;;;6.6;;
17949;SDS011;9100;48.700;9.316;2022-12-19T03:22:12;11.3;;;6.6;;
17949;SDS011;9100;48.700;9.316;2022-12-19T03:23:12;11.3;;;6.6;;
17949;SDS011;9100;48.700;9.316;2022-12-19T03:24:12;11.3;;;6.6;;
17949;SDS011;9100;48.700;9.316;2022-12-19T03:25:12;11.3;;;6.6;;
17949;SDS011;9100;48.700;9.316;2022-12-19T03:31:13;11.2;;;9;;
17949;SDS011;9100;48.700;9.316;2022-12-19T03:32:12;11.2;;;9;;
17949;SDS011;9100;48.700;9.316;2022-12-19T03:33:12;11.2;;;9;;
17949;SDS011;9100;48.700;9.316;2022-12-19T03:33:34;20.3;;;12.6;;
17949;SDS011;9100;48.700;9.316;2022-12-19T03:34:18;20.3;;;12.6;;
17949;SDS011;9100;48.700;9.316;2022-12-19T03:35:12;20.3;;;12.6;;
17949;SDS011;9100;48.700;9.316;2022-12-19T03:36:13;20.3;;;12.6;;
17949;SDS011;9100;48.700;9.316;2022-12-19T03:37:12;20.3;;;12.6;;
17949;SDS011;9100;48.700;9.316;2022-12-19T03:38:12;20.3;;;12.6;;
17949;SDS011;9100;48.700;9.316;2022-12-19T03:38:34;6.4;;;4.9;;
17949;SDS011;9100;48.700;9.316;2022-12-19T03:39:12;6.4;;;4.9;;
17949;SDS011;9100;48.700;9.316;2022-12-19T03:40:12;6.4;;;4.9;;
17949;SDS011;9100;48.700;9.316;2022-12-19T03:41:13;6.4;;;4.9;;
17949;SDS011;9100;48.700;9.316;2022-12-19T03:42:12;6.4;;;4.9;;
17949;SDS011;9100;48.700;9.316;2022-12-19T03:43:12;6.4;;;4.9;;
17949;SDS011;9100;48.700;9.316;2022-12-19T03:43:33;17.2;;;10.8;;
17949;SDS011;9100;48.700;9.316;2022-12-19T03:44:12;17.2;;;10.8;;
17949;SDS011;9100;48.700;9.316;2022-12-19T03:45:12;17.2;;;10.8;;
17949;SDS011;9100;48.700;9.316;2022-12-19T03:46:13;17.2;;;10.8;;
17949;SDS011;9100;48.700;9.316;2022-12-19T03:47:13;17.2;;;10.8;;
17949;SDS011;9100;48.700;9.316;2022-12-19T03:48:13;17.2;;;10.8;;
17949;SDS011;9100;48.700;9.316;2022-12-19T03:48:34;23.2;;;12;;
17949;SDS011;9100;48.700;9.316;2022-12-19T03:49:12;23.2;;;12;;
17949;SDS011;9100;48.700;9.316;2022-12-19T03:50:12;23.2;;;12;;
17949;SDS011;9100;48.700;9.316;2022-12-19T03:51:14;23.2;;;12;;
17949;SDS011;9100;48.700;9.316;2022-12-19T03:52:15;23.2;;;12;;
17949;SDS011;9100;48.700;9.316;2022-12-19T03:53:14;23.2;;;12;;
17949;SDS011;9100;48.700;9.316;2022-12-19T03:53:35;15.3;;;10.9;;
17949;SDS011;9100;48.700;9.316;2022-12-19T03:54:14;15.3;;;10.9;;
17949;SDS011;9100;48.700;9.316;2022-12-19T03:55:12;15.3;;;10.9;;
17949;SDS011;9100;48.700;9.316;2022-12-19T03:56:14;15.3;;;10.9;;
17949;SDS011;9100;48.700;9.316;2022-12-19T03:57:13;15.3;;;10.9;;
17949;SDS011;9100;48.700;9.316;2022-12-19T03:58:13;15.3;;;10.9;;
17949;SDS011;9100;48.700;9.316;2022-12-19T03:58:34;12;;;9.1;;
17949;SDS011;9100;48.700;9.316;2022-12-19T03:59:13;12;;;9.1;;
17949;SDS011;9100;48.700;9.316;2022-12-19T04:00:12;12;;;9.1;;
17949;SDS011;9100;48.700;9.316;2022-12-19T04:01:12;12;;;9.1;;
17949;SDS011;9100;48.700;9.316;2022-12-19T04:02:12;12;;;9.1;;
17949;SDS011;9100;48.700;9.316;2022-12-19T04:03:12;12;;;9.1;;
17949;SDS011;9100;48.700;9.316;2022-12-19T04:03:34;26.1;;;15.7;;
17949;SDS011;9100;48.700;9.316;2022-12-19T04:04:12;26.1;;;15.7;;
17949;SDS011;9100;48.700;9.316;2022-12-19T04:05:14;26.1;;;15.7;;
17949;SDS011;9100;48.700;9.316;2022-12-19T04:06:12;26.1;;;15.7;;
17949;SDS011;9100;48.700;9.316;2022-12-19T04:07:12;26.1;;;15.7;;
17949;SDS011;9100;48.700;9.316;2022-12-19T04:08:12;26.1;;;15.7;;
17949;SDS011;9100;48.700;9.316;2022-12-19T04:08:34;15.4;;;9.7;;
17949;SDS011;9100;48.700;9.316;2022-12-19T04:09:12;15.4;;;9.7;;
17949;SDS011;9100;48.700;9.316;2022-12-19T04:10:12;15.4;;;9.7;;
17949;SDS011;9100;48.700;9.316;2022-12-19T04:11:12;15.4;;;9.7;;
17949;SDS011;9100;48.700;9.316;2022-12-19T04:12:13;15.4;;;9.7;;
17949;SDS011;9100;48.700;9.316;2022-12-19T04:13:12;15.4;;;9.7;;
17949;SDS011;9100;48.700;9.316;2022-12-19T04:13:34;22;;;14.8;;
17949;SDS011;9100;48.700;9.316;2022-12-19T04:14:13;22;;;14.8;;
17949;SDS011;9100;48.700;9.316;2022-12-19T04:15:12;22;;;14.8;;
17949;SDS011;9100;48.700;9.316;2022-12-19T04:16:18;22;;;14.8;;
17949;SDS011;9100;48.700;9.316;2022-12-19T04:17:13;22;;;14.8;;
17949;SDS011;9100;48.700;9.316;2022-12-19T04:18:12;22;;;14.8;;
17949;SDS011;9100;48.700;9.316;2022-12-19T04:18:33;15.1;;;9.3;;
17949;SDS011;9100;48.700;9.316;2022-12-19T04:19:13;15.1;;;9.3;;
17949;SDS011;9100;48.700;9.316;2022-12-19T04:20:12;15.1;;;9.3;;
17949;SDS011;9100;48.700;9.316;2022-12-19T04:21:12;15.1;;;9.3;;
17949;SDS011;9100;48.700;9.316;2022-12-19T04:22:13;15.1;;;9.3;;
17949;SDS011;9100;48.700;9.316;2022-12-19T04:23:13;15.1;;;9.3;;
17949;SDS011;9100;48.700;9.316;2022-12-19T04:23:36;20;;;11.3;;
17949;SDS011;9100;48.700;9.316;2022-12-19T04:24:13;20;;;11.3;;
17949;SDS011;9100;48.700;9.316;2022-12-19T04:25:13;20;;;11.3;;
17949;SDS011;9100;48.700;9.316;2022-12-19T04:26:12;20;;;11.3;;
17949;SDS011;9100;48.700;9.316;2022-12-19T04:27:12;20;;;11.3;;
17949;SDS011;9100;48.700;9.316;2022-12-19T04:28:12;20;;;11.3;;
17949;SDS011;9100;48.700;9.316;2022-12-19T04:28:35;21.5;;;13.4;;
17949;SDS011;9100;48.700;9.316;2022-12-19T04:29:12;21.5;;;13.4;;
17949;SDS011;9100;48.700;9.316;2022-12-19T04:30:12;21.5;;;13.4;;
17949;SDS011;9100;48.700;9.316;2022-12-19T04:31:12;21.5;;;13.4;;
17949;SDS011;9100;48.700;9.316;2022-12-19T04:32:12;21.5;;;13.4;;
17949;SDS011;9100;48.700;9.316;2022-12-19T04:33:12;21.5;;;13.4;;
17949;SDS011;9100;48.700;9.316;2022-12-19T04:33:33;19.7;;;12.6;;
17949;SDS011;9100;48.700;9.316;2022-12-19T04:34:12;19.7;;;12.6;;
17949;SDS011;9100;48.700;9.316;2022-12-19T04:35:12;19.7;;;12.6;;
17949;SDS011;9100;48.700;9.316;2022-12-19T04:36:12;19.7;;;12.6;;
17949;SDS011;9100;48.700;9.316;2022-12-19T04:37:12;19.7;;;12.6;;
17949;SDS011;9100;48.700;9.316;2022-12-19T04:38:12;19.7;;;12.6;;
17949;SDS011;9100;48.700;9.316;2022-12-19T04:38:33;27.7;;;16.1;;
17949;SDS011;9100;48.700;9.316;2022-12-19T04:39:12;27.7;;;16.1;;
17949;SDS011;9100;48.700;9.316;2022-12-19T04:40:12;27.7;;;16.1;;
17949;SDS011;9100;48.700;9.316;2022-12-19T04:41:12;27.7;;;16.1;;
17949;SDS011;9100;48.700;9.316;2022-12-19T04:42:12;27.7;;;16.1;;
17949;SDS011;9100;48.700;9.316;2022-12-19T04:43:12;27.7;;;16.1;;
17949;SDS011;9100;48.700;9.316;2022-12-19T04:43:33;26.7;;;14.7;;
17949;SDS011;9100;48.700;9.316;2022-12-19T04:44:12;26.7;;;14.7;;
17949;SDS011;9100;48.700;9.316;2022-12-19T04:45:12;26.7;;;14.7;;
17949;SDS011;9100;48.700;9.316;2022-12-19T04:46:12;26.7;;;14.7;;
17949;SDS011;9100;48.700;9.316;2022-12-19T04:47:12;26.7;;;14.7;;
17949;SDS011;9100;48.700;9.316;2022-12-19T04:48:12;26.7;;;14.7;;
17949;SDS011;9100;48.700;9.316;2022-12-19T04:48:34;23.8;;;16.5;;
17949;SDS011;9100;48.700;9.316;2022-12-19T04:49:12;23.8;;;16.5;;
17949;SDS011;9100;48.700;9.316;2022-12-19T04:50:12;23.8;;;16.5;;
17949;SDS011;9100;48.700;9.316;2022-12-19T04:51:12;23.8;;;16.5;;
17949;SDS011;9100;48.700;9.316;2022-12-19T04:52:12;23.8;;;16.5;;
17949;SDS011;9100;48.700;9.316;2022-12-19T04:53:12;23.8;;;16.5;;
17949;SDS011;9100;48.700;9.316;2022-12-19T04:53:33;25.1;;;16.4;;
17949;SDS011;9100;48.700;9.316;2022-12-19T04:54:14;25.1;;;16.4;;
17949;SDS011;9100;48.700;9.316;2022-12-19T04:55:12;25.1;;;16.4;;
17949;SDS011;9100;48.700;9.316;2022-12-19T04:56:12;25.1;;;16.4;;
17949;SDS011;9100;48.700;9.316;2022-12-19T04:57:12;25.1;;;16.4;;
17949;SDS011;9100;48.700;9.316;2022-12-19T04:58:12;25.1;;;16.4;;
17949;SDS011;9100;48.700;9.316;2022-12-19T04:58:33;12.4;;;9.3;;
17949;SDS011;9100;48.700;9.316;2022-12-19T04:59:12;12.4;;;9.3;;
17949;SDS011;9100;48.700;9.316;2022-12-19T05:00:12;12.4;;;9.3;;
17949;SDS011;9100;48.700;9.316;2022-12-19T05:01:12;12.4;;;9.3;;
17949;SDS011;9100;48.700;9.316;2022-12-19T05:02:12;12.4;;;9.3;;
17949;SDS011;9100;48.700;9.316;2022-12-19T05:03:12;12.4;;;9.3;;
17949;SDS011;9100;48.700;9.316;2022-12-19T05:03:34;13.9;;;7.9;;
17949;SDS011;9100;48.700;9.316;2022-12-19T05:04:12;13.9;;;7.9;;
17949;SDS011;9100;48.700;9.316;2022-12-19T05:05:12;13.9;;;7.9;;
17949;SDS011;9100;48.700;9.316;2022-12-19T05:06:12;13.9;;;7.9;;
17949;SDS011;9100;48.700;9.316;2022-12-19T05:07:12;13.9;;;7.9;;
17949;SDS011;9100;48.700;9.316;2022-12-19T05:08:12;13.9;;;7.9;;
17949;SDS011;9100;48.700;9.316;2022-12-19T05:08:34;11.9;;;7.7;;
17949;SDS011;9100;48.700;9.316;2022-12-19T05:09:12;11.9;;;7.7;;
17949;SDS011;9100;48.700;9.316;2022-12-19T05:10:12;11.9;;;7.7;;
17949;SDS011;9100;48.700;9.316;2022-12-19T05:11:13;11.9;;;7.7;;
17949;SDS011;9100;48.700;9.316;2022-12-19T05:12:12;11.9;;;7.7;;
17949;SDS011;9100;48.700;9.316;2022-12-19T05:13:12;11.9;;;7.7;;
17949;SDS011;9100;48.700;9.316;2022-12-19T05:13:34;20.3;;;13.6;;
17949;SDS011;9100;48.700;9.316;2022-12-19T05:14:12;20.3;;;13.6;;
17949;SDS011;9100;48.700;9.316;2022-12-19T05:15:12;20.3;;;13.6;;